sensor_id;sensor_type;location;lat;lon;timestamp;pressure;altitude;pressure_sealevel;temperature;humidity
30730;BME280;17476;48.458;7.928;2023-03-01T00:02:06;100772.88;;;0.60;76.93
30730;BME280;17476;48.458;7.928;2023-03-01T00:04:32;100770.50;;;0.57;76.56
30730;BME280;17476;48.458;7.928;2023-03-01T00:06:58;100776.47;;;0.58;76.37
30730;BME280;17476;48.458;7.928;2023-03-01T00:09:24;100771.41;;;0.56;75.86
30730;BME280;17476;48.458;7.928;2023-03-01T00:11:49;100768.97;;;0.53;76.08
30730;BME280;17476;48.458;7.928;2023-03-01T00:14:16;100759.59;;;0.52;76.12
30730;BME280;17476;48.458;7.928;2023-03-01T00:16:44;100760.59;;;0.49;76.07
30730;BME280;17476;48.458;7.928;2023-03-01T00:19:18;100772.38;;;0.20;76.14
30730;BME280;17476;48.458;7.928;2023-03-01T00:21:45;100766.41;;;0.03;77.60
30730;BME280;17476;48.458;7.928;2023-03-01T00:24:11;100766.41;;;0.03;77.42
30730;BME280;17476;48.458;7.928;2023-03-01T00:26:37;100774.72;;;0.08;77.58
30730;BME280;17476;48.458;7.928;2023-03-01T00:29:04;100767.75;;;0.10;77.18
30730;BME280;17476;48.458;7.928;2023-03-01T00:31:32;100773.50;;;0.15;77.48
30730;BME280;17476;48.458;7.928;2023-03-01T00:34:01;100772.44;;;0.19;76.94
30730;BME280;17476;48.458;7.928;2023-03-01T00:36:31;100773.19;;;0.21;77.05
30730;BME280;17476;48.458;7.928;2023-03-01T00:38:58;100775.81;;;0.19;76.96
30730;BME280;17476;48.458;7.928;2023-03-01T00:41:24;100769.84;;;0.19;77.18
30730;BME280;17476;48.458;7.928;2023-03-01T00:43:52;100765.78;;;0.15;77.03
30730;BME280;17476;48.458;7.928;2023-03-01T00:46:24;100764.06;;;0.15;76.94
30730;BME280;17476;48.458;7.928;2023-03-01T00:48:50;100760.66;;;0.15;77.01
30730;BME280;17476;48.458;7.928;2023-03-01T00:51:24;100764.13;;;0.14;76.37
30730;BME280;17476;48.458;7.928;2023-03-01T00:53:53;100760.19;;;0.07;77.09
30730;BME280;17476;48.458;7.928;2023-03-01T00:56:20;100760.72;;;-0.04;77.13
30730;BME280;17476;48.458;7.928;2023-03-01T00:58:46;100768.56;;;-0.07;77.72
30730;BME280;17476;48.458;7.928;2023-03-01T01:01:20;100760.72;;;-0.04;77.46
30730;BME280;17476;48.458;7.928;2023-03-01T01:03:50;100765.03;;;-0.05;76.95
30730;BME280;17476;48.458;7.928;2023-03-01T01:06:30;100770.31;;;-0.08;76.46
30730;BME280;17476;48.458;7.928;2023-03-01T01:08:57;100764.44;;;-0.10;76.84
30730;BME280;17476;48.458;7.928;2023-03-01T01:11:25;100760.19;;;-0.11;76.62
30730;BME280;17476;48.458;7.928;2023-03-01T01:13:53;100754.00;;;-0.24;77.62
30730;BME280;17476;48.458;7.928;2023-03-01T01:16:21;100746.28;;;-0.24;77.57
30730;BME280;17476;48.458;7.928;2023-03-01T01:18:47;100742.72;;;-0.21;77.49
30730;BME280;17476;48.458;7.928;2023-03-01T01:21:17;100742.78;;;-0.23;77.46
30730;BME280;17476;48.458;7.928;2023-03-01T01:23:45;100741.06;;;-0.22;77.49
30730;BME280;17476;48.458;7.928;2023-03-01T01:26:19;100737.75;;;-0.24;77.12
30730;BME280;17476;48.458;7.928;2023-03-01T01:28:45;100738.47;;;-0.22;77.28
30730;BME280;17476;48.458;7.928;2023-03-01T01:31:12;100733.22;;;-0.19;77.05
30730;BME280;17476;48.458;7.928;2023-03-01T01:33:38;100735.09;;;-0.23;77.13
30730;BME280;17476;48.458;7.928;2023-03-01T01:36:06;100729.19;;;-0.25;77.92
30730;BME280;17476;48.458;7.928;2023-03-01T01:38:33;100720.78;;;-0.29;77.59
30730;BME280;17476;48.458;7.928;2023-03-01T01:40:59;100725.28;;;-0.32;77.75
30730;BME280;17476;48.458;7.928;2023-03-01T01:43:37;100718.47;;;-0.33;78.74
30730;BME280;17476;48.458;7.928;2023-03-01T01:46:32;100713.88;;;-0.26;78.52
30730;BME280;17476;48.458;7.928;2023-03-01T01:49:00;100706.38;;;-0.31;78.65
30730;BME280;17476;48.458;7.928;2023-03-01T01:51:37;100710.50;;;-0.29;78.15
30730;BME280;17476;48.458;7.928;2023-03-01T01:54:16;100705.66;;;-0.35;79.08
30730;BME280;17476;48.458;7.928;2023-03-01T01:56:48;100709.97;;;-0.35;79.17
30730;BME280;17476;48.458;7.928;2023-03-01T01:59:15;100709.78;;;-0.31;78.75
30730;BME280;17476;48.458;7.928;2023-03-01T02:01:42;100707.56;;;-0.38;78.92
30730;BME280;17476;48.458;7.928;2023-03-01T02:04:09;100711.97;;;-0.40;79.48
30730;BME280;17476;48.458;7.928;2023-03-01T02:06:41;100705.66;;;-0.35;79.44
30730;BME280;17476;48.458;7.928;2023-03-01T02:09:14;100701.44;;;-0.36;79.97
30730;BME280;17476;48.458;7.928;2023-03-01T02:11:42;100696.91;;;-0.31;78.82
30730;BME280;17476;48.458;7.928;2023-03-01T02:14:09;100705.63;;;-0.33;79.38
30730;BME280;17476;48.458;7.928;2023-03-01T02:16:35;100695.34;;;-0.33;78.83
30730;BME280;17476;48.458;7.928;2023-03-01T02:19:03;100693.00;;;-0.38;79.10
30730;BME280;17476;48.458;7.928;2023-03-01T02:22:27;100694.28;;;-0.46;79.86
30730;BME280;17476;48.458;7.928;2023-03-01T02:30:32;100689.88;;;-0.44;79.43
30730;BME280;17476;48.458;7.928;2023-03-01T02:33:00;100687.31;;;-0.44;79.48
30730;BME280;17476;48.458;7.928;2023-03-01T02:35:38;100685.38;;;-0.39;79.81
30730;BME280;17476;48.458;7.928;2023-03-01T02:38:07;100681.72;;;-0.35;79.59
30730;BME280;17476;48.458;7.928;2023-03-01T02:40:35;100679.00;;;-0.32;80.09
30730;BME280;17476;48.458;7.928;2023-03-01T02:43:07;100677.34;;;-0.33;79.26
30730;BME280;17476;48.458;7.928;2023-03-01T02:45:34;100666.16;;;-0.32;79.42
30730;BME280;17476;48.458;7.928;2023-03-01T02:48:00;100676.53;;;-0.34;79.36
30730;BME280;17476;48.458;7.928;2023-03-01T02:53:17;100666.38;;;-0.37;78.63
30730;BME280;17476;48.458;7.928;2023-03-01T02:55:47;100673.34;;;-0.39;79.24
30730;BME280;17476;48.458;7.928;2023-03-01T02:58:14;100657.94;;;-0.39;78.80
30730;BME280;17476;48.458;7.928;2023-03-01T03:00:42;100653.75;;;-0.41;79.07
30730;BME280;17476;48.458;7.928;2023-03-01T03:03:17;100655.28;;;-0.37;79.04
30730;BME280;17476;48.458;7.928;2023-03-01T03:05:45;100650.44;;;-0.43;79.52
30730;BME280;17476;48.458;7.928;2023-03-01T03:08:11;100655.56;;;-0.43;79.69
30730;BME280;17476;48.458;7.928;2023-03-01T03:10:40;100651.34;;;-0.44;79.41
30730;BME280;17476;48.458;7.928;2023-03-01T03:13:13;100654.84;;;-0.45;79.67
30730;BME280;17476;48.458;7.928;2023-03-01T03:15:40;100648.94;;;-0.47;79.58
30730;BME280;17476;48.458;7.928;2023-03-01T03:18:14;100647.22;;;-0.47;79.40
30730;BME280;17476;48.458;7.928;2023-03-01T03:20:42;100645.47;;;-0.46;79.51
30730;BME280;17476;48.458;7.928;2023-03-01T03:23:08;100639.56;;;-0.48;79.76
30730;BME280;17476;48.458;7.928;2023-03-01T03:25:34;100642.13;;;-0.48;79.54
30730;BME280;17476;48.458;7.928;2023-03-01T03:28:05;100637.75;;;-0.46;79.25
30730;BME280;17476;48.458;7.928;2023-03-01T03:30:37;100638.16;;;-0.54;79.75
30730;BME280;17476;48.458;7.928;2023-03-01T03:33:08;100639.03;;;-0.55;80.07
30730;BME280;17476;48.458;7.928;2023-03-01T03:35:45;100635.72;;;-0.57;79.58
30730;BME280;17476;48.458;7.928;2023-03-01T03:38:14;100638.97;;;-0.53;79.96
30730;BME280;17476;48.458;7.928;2023-03-01T03:40:54;100637.16;;;-0.51;79.69
30730;BME280;17476;48.458;7.928;2023-03-01T03:43:26;100637.16;;;-0.51;79.89
30730;BME280;17476;48.458;7.928;2023-03-01T03:45:52;100629.44;;;-0.51;78.98
30730;BME280;17476;48.458;7.928;2023-03-01T03:48:20;100637.28;;;-0.55;78.88
30730;BME280;17476;48.458;7.928;2023-03-01T03:50:54;100622.19;;;-0.61;79.93
30730;BME280;17476;48.458;7.928;2023-03-01T03:53:23;100635.09;;;-0.62;79.38
30730;BME280;17476;48.458;7.928;2023-03-01T03:55:49;100629.13;;;-0.63;79.23
30730;BME280;17476;48.458;7.928;2023-03-01T03:58:19;100617.38;;;-0.67;80.01
30730;BME280;17476;48.458;7.928;2023-03-01T04:00:47;100624.00;;;-0.63;79.93
30730;BME280;17476;48.458;7.928;2023-03-01T04:03:15;100630.94;;;-0.65;79.64
30730;BME280;17476;48.458;7.928;2023-03-01T04:05:41;100631.09;;;-0.68;80.18
30730;BME280;17476;48.458;7.928;2023-03-01T04:08:08;100635.25;;;-0.65;79.45
30730;BME280;17476;48.458;7.928;2023-03-01T04:10:41;100626.47;;;-0.61;79.90
30730;BME280;17476;48.458;7.928;2023-03-01T04:13:12;100622.25;;;-0.62;79.84
30730;BME280;17476;48.458;7.928;2023-03-01T04:15:40;100623.16;;;-0.63;79.69
30730;BME280;17476;48.458;7.928;2023-03-01T04:18:06;100625.50;;;-0.59;79.66
30730;BME280;17476;48.458;7.928;2023-03-01T04:20:35;100624.69;;;-0.59;79.54
30730;BME280;17476;48.458;7.928;2023-03-01T04:23:05;100619.56;;;-0.59;79.68
30730;BME280;17476;48.458;7.928;2023-03-01T04:25:56;100616.16;;;-0.60;79.28
30730;BME280;17476;48.458;7.928;2023-03-01T04:28:29;100627.34;;;-0.61;79.39
30730;BME280;17476;48.458;7.928;2023-03-01T04:30:57;100617.19;;;-0.64;79.49
30730;BME280;17476;48.458;7.928;2023-03-01T04:33:24;100612.97;;;-0.65;79.99
30730;BME280;17476;48.458;7.928;2023-03-01T04:35:51;100614.50;;;-0.61;79.85
30730;BME280;17476;48.458;7.928;2023-03-01T04:38:20;100610.19;;;-0.60;79.54
30730;BME280;17476;48.458;7.928;2023-03-01T04:40:46;100605.09;;;-0.62;80.06
30730;BME280;17476;48.458;7.928;2023-03-01T04:43:13;100605.94;;;-0.61;79.83
30730;BME280;17476;48.458;7.928;2023-03-01T04:45:40;100591.38;;;-0.61;79.66
30730;BME280;17476;48.458;7.928;2023-03-01T04:48:06;100600.78;;;-0.61;80.10
30730;BME280;17476;48.458;7.928;2023-03-01T04:50:32;100600.88;;;-0.63;79.98
30730;BME280;17476;48.458;7.928;2023-03-01T04:52:58;100606.78;;;-0.61;80.82
30730;BME280;17476;48.458;7.928;2023-03-01T04:55:26;100603.00;;;-0.53;81.03
30730;BME280;17476;48.458;7.928;2023-03-01T04:57:53;100589.91;;;-0.49;81.13
30730;BME280;17476;48.458;7.928;2023-03-01T05:00:20;100594.75;;;-0.43;81.07
30730;BME280;17476;48.458;7.928;2023-03-01T05:02:58;100596.34;;;-0.40;81.12
30730;BME280;17476;48.458;7.928;2023-03-01T05:05:30;100600.41;;;-0.36;81.24
30730;BME280;17476;48.458;7.928;2023-03-01T05:07:59;100600.00;;;-0.29;80.75
30730;BME280;17476;48.458;7.928;2023-03-01T05:10:27;100588.16;;;-0.31;80.76
30730;BME280;17476;48.458;7.928;2023-03-01T05:12:55;100598.44;;;-0.31;81.58
30730;BME280;17476;48.458;7.928;2023-03-01T05:15:24;100584.47;;;-0.25;81.80
30730;BME280;17476;48.458;7.928;2023-03-01T05:17:55;100593.66;;;-0.21;81.54
30730;BME280;17476;48.458;7.928;2023-03-01T05:20:21;100587.78;;;-0.23;81.27
30730;BME280;17476;48.458;7.928;2023-03-01T05:22:51;100593.66;;;-0.21;81.55
30730;BME280;17476;48.458;7.928;2023-03-01T05:25:18;100584.53;;;-0.27;81.43
30730;BME280;17476;48.458;7.928;2023-03-01T05:27:44;100586.03;;;-0.23;82.15
30730;BME280;17476;48.458;7.928;2023-03-01T05:30:10;100583.88;;;-0.15;82.10
30730;BME280;17476;48.458;7.928;2023-03-01T05:32:41;100585.31;;;-0.09;81.96
30730;BME280;17476;48.458;7.928;2023-03-01T05:35:12;100573.16;;;-0.06;81.79
30730;BME280;17476;48.458;7.928;2023-03-01T05:37:44;100581.44;;;-0.01;80.80
30730;BME280;17476;48.458;7.928;2023-03-01T05:40:13;100594.44;;;-0.04;81.59
30730;BME280;17476;48.458;7.928;2023-03-01T05:42:47;100589.91;;;0.02;81.97
30730;BME280;17476;48.458;7.928;2023-03-01T05:45:14;100582.94;;;0.04;81.77
30730;BME280;17476;48.458;7.928;2023-03-01T05:47:43;100587.16;;;0.05;81.66
30730;BME280;17476;48.458;7.928;2023-03-01T05:50:29;100590.56;;;0.05;81.08
30730;BME280;17476;48.458;7.928;2023-03-01T05:53:02;100586.25;;;0.06;81.09
30730;BME280;17476;48.458;7.928;2023-03-01T05:55:29;100577.97;;;0.01;80.83
30730;BME280;17476;48.458;7.928;2023-03-01T05:57:59;100588.31;;;-0.01;80.76
30730;BME280;17476;48.458;7.928;2023-03-01T06:00:25;100583.47;;;-0.07;80.39
30730;BME280;17476;48.458;7.928;2023-03-01T06:02:50;100583.84;;;-0.13;81.10
30730;BME280;17476;48.458;7.928;2023-03-01T06:05:18;100590.69;;;-0.14;81.00
30730;BME280;17476;48.458;7.928;2023-03-01T06:07:44;100590.63;;;-0.12;81.33
30730;BME280;17476;48.458;7.928;2023-03-01T06:10:11;100598.34;;;-0.12;80.76
30730;BME280;17476;48.458;7.928;2023-03-01T06:12:39;100592.88;;;-0.06;81.14
30730;BME280;17476;48.458;7.928;2023-03-01T06:15:07;100597.94;;;-0.05;80.73
30730;BME280;17476;48.458;7.928;2023-03-01T06:17:36;100598.16;;;-0.09;80.80
30730;BME280;17476;48.458;7.928;2023-03-01T06:20:15;100595.50;;;-0.08;80.58
30730;BME280;17476;48.458;7.928;2023-03-01T06:22:44;100593.72;;;-0.06;78.97
30730;BME280;17476;48.458;7.928;2023-03-01T06:25:12;100597.50;;;-0.13;79.34
30730;BME280;17476;48.458;7.928;2023-03-01T06:27:39;100597.81;;;-0.19;79.91
30730;BME280;17476;48.458;7.928;2023-03-01T06:30:06;100585.47;;;-0.12;79.51
30730;BME280;17476;48.458;7.928;2023-03-01T06:32:33;100587.53;;;-0.19;79.96
30730;BME280;17476;48.458;7.928;2023-03-01T06:34:59;100591.78;;;-0.18;80.08
30730;BME280;17476;48.458;7.928;2023-03-01T06:37:25;100588.69;;;-0.24;80.01
30730;BME280;17476;48.458;7.928;2023-03-01T06:39:51;100586.84;;;-0.22;79.26
30730;BME280;17476;48.458;7.928;2023-03-01T06:42:17;100587.69;;;-0.22;79.55
30730;BME280;17476;48.458;7.928;2023-03-01T06:44:44;100583.53;;;-0.24;81.08
30730;BME280;17476;48.458;7.928;2023-03-01T06:47:11;100587.69;;;-0.22;80.82
30730;BME280;17476;48.458;7.928;2023-03-01T06:49:37;100584.19;;;-0.21;80.22
30730;BME280;17476;48.458;7.928;2023-03-01T06:52:03;100581.41;;;-0.16;79.66
30730;BME280;17476;48.458;7.928;2023-03-01T06:54:28;100575.44;;;-0.17;79.96
30730;BME280;17476;48.458;7.928;2023-03-01T06:56:54;100570.28;;;-0.17;79.41
30730;BME280;17476;48.458;7.928;2023-03-01T06:59:20;100581.38;;;-0.32;79.82
30730;BME280;17476;48.458;7.928;2023-03-01T07:01:46;100577.88;;;-0.31;79.98
30730;BME280;17476;48.458;7.928;2023-03-01T07:04:13;100577.88;;;-0.31;80.10
30730;BME280;17476;48.458;7.928;2023-03-01T07:06:39;100574.63;;;-0.35;80.12
30730;BME280;17476;48.458;7.928;2023-03-01T07:09:05;100578.19;;;-0.37;81.76
30730;BME280;17476;48.458;7.928;2023-03-01T07:11:31;100574.00;;;-0.22;81.46
30730;BME280;17476;48.458;7.928;2023-03-01T07:13:57;100572.47;;;-0.09;81.03
30730;BME280;17476;48.458;7.928;2023-03-01T07:16:24;100573.16;;;-0.06;81.46
30730;BME280;17476;48.458;7.928;2023-03-01T07:18:49;100565.84;;;0.03;80.82
30730;BME280;17476;48.458;7.928;2023-03-01T07:21:15;100560.53;;;0.06;80.18
30730;BME280;17476;48.458;7.928;2023-03-01T07:23:42;100561.22;;;0.09;81.21
30730;BME280;17476;48.458;7.928;2023-03-01T07:26:08;100560.97;;;0.14;79.63
30730;BME280;17476;48.458;7.928;2023-03-01T07:28:34;100557.31;;;0.18;79.82
30730;BME280;17476;48.458;7.928;2023-03-01T07:31:05;100552.44;;;0.29;80.06
30730;BME280;17476;48.458;7.928;2023-03-01T07:33:32;100540.22;;;0.33;80.27
30730;BME280;17476;48.458;7.928;2023-03-01T07:36:00;100549.19;;;0.41;80.15
30730;BME280;17476;48.458;7.928;2023-03-01T07:38:28;100550.53;;;0.48;80.69
30730;BME280;17476;48.458;7.928;2023-03-01T07:40:59;100548.34;;;0.57;81.11
30730;BME280;17476;48.458;7.928;2023-03-01T07:43:25;100548.84;;;0.63;81.10
30730;BME280;17476;48.458;7.928;2023-03-01T07:45:50;100551.00;;;0.71;80.78
30730;BME280;17476;48.458;7.928;2023-03-01T07:48:17;100553.25;;;0.61;77.60
30730;BME280;17476;48.458;7.928;2023-03-01T07:50:43;100562.94;;;0.40;78.56
30730;BME280;17476;48.458;7.928;2023-03-01T07:53:09;100555.72;;;0.47;79.89
30730;BME280;17476;48.458;7.928;2023-03-01T07:55:36;100555.41;;;0.53;80.48
30730;BME280;17476;48.458;7.928;2023-03-01T07:58:02;100548.41;;;0.71;80.73
30730;BME280;17476;48.458;7.928;2023-03-01T08:00:28;100554.00;;;0.93;82.59
30730;BME280;17476;48.458;7.928;2023-03-01T08:02:54;100548.63;;;1.12;82.29
30730;BME280;17476;48.458;7.928;2023-03-01T08:05:20;100546.75;;;1.30;80.21
30730;BME280;17476;48.458;7.928;2023-03-01T08:07:47;100549.44;;;1.43;82.25
30730;BME280;17476;48.458;7.928;2023-03-01T08:10:13;100542.91;;;1.51;81.45
30730;BME280;17476;48.458;7.928;2023-03-01T08:12:39;100536.47;;;1.58;79.14
30730;BME280;17476;48.458;7.928;2023-03-01T08:15:06;100549.00;;;1.64;81.29
30730;BME280;17476;48.458;7.928;2023-03-01T08:17:32;100529.94;;;1.67;80.10
30730;BME280;17476;48.458;7.928;2023-03-01T08:19:58;100525.91;;;1.77;78.97
30730;BME280;17476;48.458;7.928;2023-03-01T08:22:23;100531.75;;;1.94;81.95
30730;BME280;17476;48.458;7.928;2023-03-01T08:24:49;100529.81;;;2.11;81.68
30730;BME280;17476;48.458;7.928;2023-03-01T08:27:16;100527.06;;;2.41;79.74
30730;BME280;17476;48.458;7.928;2023-03-01T08:29:42;100519.59;;;2.64;76.68
30730;BME280;17476;48.458;7.928;2023-03-01T08:32:08;100524.50;;;2.81;77.81
30730;BME280;17476;48.458;7.928;2023-03-01T08:34:34;100525.59;;;3.04;73.85
30730;BME280;17476;48.458;7.928;2023-03-01T08:37:01;100521.06;;;3.20;73.50
30730;BME280;17476;48.458;7.928;2023-03-01T08:39:27;100522.44;;;3.39;75.38
30730;BME280;17476;48.458;7.928;2023-03-01T08:41:53;100518.06;;;3.52;74.73
30730;BME280;17476;48.458;7.928;2023-03-01T08:44:19;100512.75;;;3.79;75.58
30730;BME280;17476;48.458;7.928;2023-03-01T08:46:46;100505.47;;;4.09;74.95
30730;BME280;17476;48.458;7.928;2023-03-01T08:49:18;100510.59;;;4.46;72.72
30730;BME280;17476;48.458;7.928;2023-03-01T08:51:45;100503.16;;;4.89;69.82
30730;BME280;17476;48.458;7.928;2023-03-01T08:54:20;100493.78;;;5.33;69.00
30730;BME280;17476;48.458;7.928;2023-03-01T08:56:48;100493.94;;;5.65;66.55
30730;BME280;17476;48.458;7.928;2023-03-01T08:59:16;100490.28;;;6.01;66.47
30730;BME280;17476;48.458;7.928;2023-03-01T09:01:43;100481.19;;;6.07;65.38
30730;BME280;17476;48.458;7.928;2023-03-01T09:04:10;100487.38;;;6.38;64.87
30730;BME280;17476;48.458;7.928;2023-03-01T09:06:36;100480.63;;;6.68;61.65
30730;BME280;17476;48.458;7.928;2023-03-01T09:09:04;100480.81;;;6.97;61.05
30730;BME280;17476;48.458;7.928;2023-03-01T09:11:30;100473.94;;;7.07;56.88
30730;BME280;17476;48.458;7.928;2023-03-01T09:13:57;100469.56;;;7.07;56.91
30730;BME280;17476;48.458;7.928;2023-03-01T09:16:23;100466.25;;;7.05;59.85
30730;BME280;17476;48.458;7.928;2023-03-01T09:18:54;100458.03;;;7.31;58.94
30730;BME280;17476;48.458;7.928;2023-03-01T09:21:22;100462.94;;;7.55;57.27
30730;BME280;17476;48.458;7.928;2023-03-01T09:23:49;100461.13;;;7.86;56.16
30730;BME280;17476;48.458;7.928;2023-03-01T09:26:19;100454.59;;;8.11;55.62
30730;BME280;17476;48.458;7.928;2023-03-01T09:28:45;100440.09;;;8.28;54.73
30730;BME280;17476;48.458;7.928;2023-03-01T09:31:13;100442.31;;;8.42;54.62
30730;BME280;17476;48.458;7.928;2023-03-01T09:33:40;100446.81;;;8.59;54.26
30730;BME280;17476;48.458;7.928;2023-03-01T09:36:13;100435.97;;;8.83;52.56
30730;BME280;17476;48.458;7.928;2023-03-01T09:38:40;100439.75;;;9.08;53.26
30730;BME280;17476;48.458;7.928;2023-03-01T09:44:30;100432.66;;;10.10;51.25
30730;BME280;17476;48.458;7.928;2023-03-01T09:46:59;100427.78;;;10.43;48.33
30730;BME280;17476;48.458;7.928;2023-03-01T09:49:32;100427.69;;;10.71;49.72
30730;BME280;17476;48.458;7.928;2023-03-01T09:52:00;100416.28;;;10.80;47.91
30730;BME280;17476;48.458;7.928;2023-03-01T09:54:29;100421.53;;;11.06;47.65
30730;BME280;17476;48.458;7.928;2023-03-01T09:57:49;100420.31;;;11.26;46.08
30730;BME280;17476;48.458;7.928;2023-03-01T10:00:22;100417.38;;;11.29;47.69
30730;BME280;17476;48.458;7.928;2023-03-01T10:06:08;100421.16;;;11.01;48.60
30730;BME280;17476;48.458;7.928;2023-03-01T10:08:48;100415.09;;;11.26;47.05
30730;BME280;17476;48.458;7.928;2023-03-01T10:11:25;100410.28;;;11.56;46.73
30730;BME280;17476;48.458;7.928;2023-03-01T10:16:56;100416.03;;;12.18;46.43
30730;BME280;17476;48.458;7.928;2023-03-01T10:19:43;100418.22;;;12.47;45.86
30730;BME280;17476;48.458;7.928;2023-03-01T10:22:29;100411.50;;;12.61;45.03
30730;BME280;17476;48.458;7.928;2023-03-01T10:25:03;100413.44;;;12.58;45.16
30730;BME280;17476;48.458;7.928;2023-03-01T10:27:52;100412.44;;;12.84;45.38
30730;BME280;17476;48.458;7.928;2023-03-01T10:30:39;100413.53;;;13.22;42.15
30730;BME280;17476;48.458;7.928;2023-03-01T10:33:24;100408.53;;;13.83;42.70
30730;BME280;17476;48.458;7.928;2023-03-01T10:35:52;100402.75;;;14.10;40.07
30730;BME280;17476;48.458;7.928;2023-03-01T10:38:19;100411.41;;;13.88;41.43
30730;BME280;17476;48.458;7.928;2023-03-01T10:41:06;100394.25;;;14.00;40.85
30730;BME280;17476;48.458;7.928;2023-03-01T10:43:46;100393.78;;;14.42;42.25
30730;BME280;17476;48.458;7.928;2023-03-01T10:46:34;100380.47;;;14.82;41.07
30730;BME280;17476;48.458;7.928;2023-03-01T10:49:17;100381.47;;;15.10;38.72
30730;BME280;17476;48.458;7.928;2023-03-01T10:51:47;100371.34;;;15.58;40.22
30730;BME280;17476;48.458;7.928;2023-03-01T10:54:30;100359.09;;;15.87;38.26
30730;BME280;17476;48.458;7.928;2023-03-01T10:57:03;100366.75;;;16.03;37.44
30730;BME280;17476;48.458;7.928;2023-03-01T10:59:37;100361.13;;;16.06;37.19
30730;BME280;17476;48.458;7.928;2023-03-01T11:02:26;100345.59;;;16.46;38.34
30730;BME280;17476;48.458;7.928;2023-03-01T11:07:56;100349.31;;;16.02;36.68
30730;BME280;17476;48.458;7.928;2023-03-01T11:10:32;100344.16;;;16.15;37.10
30730;BME280;17476;48.458;7.928;2023-03-01T11:13:15;100347.00;;;16.42;37.87
30730;BME280;17476;48.458;7.928;2023-03-01T11:15:42;100339.84;;;16.63;35.50
30730;BME280;17476;48.458;7.928;2023-03-01T11:18:22;100342.78;;;17.10;35.14
30730;BME280;17476;48.458;7.928;2023-03-01T11:20:50;100337.78;;;17.28;33.93
30730;BME280;17476;48.458;7.928;2023-03-01T11:23:18;100322.22;;;17.05;35.09
30730;BME280;17476;48.458;7.928;2023-03-01T11:25:56;100319.03;;;17.16;35.17
30730;BME280;17476;48.458;7.928;2023-03-01T11:28:25;100315.13;;;17.12;34.79
30730;BME280;17476;48.458;7.928;2023-03-01T11:33:59;100310.31;;;17.23;35.42
30730;BME280;17476;48.458;7.928;2023-03-01T11:36:53;100298.38;;;17.46;34.53
30730;BME280;17476;48.458;7.928;2023-03-01T11:39:31;100284.06;;;17.82;34.65
30730;BME280;17476;48.458;7.928;2023-03-01T11:42:18;100289.53;;;17.94;32.60
30730;BME280;17476;48.458;7.928;2023-03-01T11:44:51;100274.69;;;18.06;33.41
30730;BME280;17476;48.458;7.928;2023-03-01T11:47:37;100275.69;;;17.98;33.16
30730;BME280;17476;48.458;7.928;2023-03-01T11:56:39;100273.66;;;18.27;33.40
30730;BME280;17476;48.458;7.928;2023-03-01T12:06:05;100254.22;;;18.60;32.89
30730;BME280;17476;48.458;7.928;2023-03-01T12:08:48;100248.94;;;18.60;31.82
30730;BME280;17476;48.458;7.928;2023-03-01T12:17:36;100224.75;;;19.01;31.99
30730;BME280;17476;48.458;7.928;2023-03-01T12:38:32;100202.16;;;18.92;31.03
30730;BME280;17476;48.458;7.928;2023-03-01T12:47:18;100183.66;;;19.17;30.86
30730;BME280;17476;48.458;7.928;2023-03-01T12:52:55;100181.28;;;19.40;31.11
30730;BME280;17476;48.458;7.928;2023-03-01T12:55:40;100174.31;;;19.71;29.98
30730;BME280;17476;48.458;7.928;2023-03-01T13:11:48;100150.44;;;19.71;31.78
30730;BME280;17476;48.458;7.928;2023-03-01T13:16:46;100149.03;;;19.93;30.09
30730;BME280;17476;48.458;7.928;2023-03-01T13:19:20;100145.75;;;19.91;30.30
30730;BME280;17476;48.458;7.928;2023-03-01T13:21:48;100145.00;;;19.84;30.47
30730;BME280;17476;48.458;7.928;2023-03-01T13:24:39;100144.84;;;19.54;29.38
30730;BME280;17476;48.458;7.928;2023-03-01T13:29:59;100130.91;;;19.08;31.59
30730;BME280;17476;48.458;7.928;2023-03-01T13:32:33;100131.72;;;18.77;31.27
30730;BME280;17476;48.458;7.928;2023-03-01T13:37:45;100125.84;;;18.62;31.68
30730;BME280;17476;48.458;7.928;2023-03-01T13:42:54;100128.81;;;18.34;31.46
30730;BME280;17476;48.458;7.928;2023-03-01T13:45:42;100118.16;;;17.96;32.22
30730;BME280;17476;48.458;7.928;2023-03-01T13:48:16;100123.44;;;18.03;33.30
30730;BME280;17476;48.458;7.928;2023-03-01T13:50:51;100125.63;;;18.12;32.54
30730;BME280;17476;48.458;7.928;2023-03-01T13:53:22;100120.13;;;18.07;32.33
30730;BME280;17476;48.458;7.928;2023-03-01T13:56:02;100114.72;;;17.89;33.81
30730;BME280;17476;48.458;7.928;2023-03-01T13:58:44;100116.69;;;18.00;31.88
30730;BME280;17476;48.458;7.928;2023-03-01T14:01:32;100107.16;;;17.92;32.27
30730;BME280;17476;48.458;7.928;2023-03-01T14:03:59;100109.81;;;17.86;31.90
30730;BME280;17476;48.458;7.928;2023-03-01T14:06:32;100112.47;;;17.66;32.65
30730;BME280;17476;48.458;7.928;2023-03-01T14:09:24;100103.72;;;17.72;33.13
30730;BME280;17476;48.458;7.928;2023-03-01T14:12:39;100105.78;;;17.43;33.29
30730;BME280;17476;48.458;7.928;2023-03-01T14:15:39;100107.59;;;17.10;33.51
30730;BME280;17476;48.458;7.928;2023-03-01T14:20:43;100100.03;;;16.74;34.79
30730;BME280;17476;48.458;7.928;2023-03-01T14:23:20;100098.78;;;16.70;34.23
30730;BME280;17476;48.458;7.928;2023-03-01T14:25:49;100096.66;;;16.52;33.89
30730;BME280;17476;48.458;7.928;2023-03-01T14:28:26;100097.31;;;16.67;34.74
30730;BME280;17476;48.458;7.928;2023-03-01T14:30:58;100107.22;;;16.58;34.96
30730;BME280;17476;48.458;7.928;2023-03-01T14:33:34;100104.53;;;16.45;34.37
30730;BME280;17476;48.458;7.928;2023-03-01T14:36:08;100104.13;;;16.35;34.76
30730;BME280;17476;48.458;7.928;2023-03-01T14:38:46;100114.22;;;16.25;32.81
30730;BME280;17476;48.458;7.928;2023-03-01T14:41:19;100102.66;;;16.26;34.24
30730;BME280;17476;48.458;7.928;2023-03-01T14:46:34;100105.81;;;16.08;33.36
30730;BME280;17476;48.458;7.928;2023-03-01T14:51:38;100100.91;;;16.05;35.29
30730;BME280;17476;48.458;7.928;2023-03-01T14:56:52;100105.16;;;15.65;35.57
30730;BME280;17476;48.458;7.928;2023-03-01T14:59:22;100095.91;;;15.54;36.13